Time;durP1;ratioP1;P1;durP2;ratioP2;P2;SDS_P1;SDS_P2;PMS_P1;PMS_P2;Temp;Humidity;BMP_temperature;BMP_pressure;BME280_temperature;BME280_humidity;BME280_pressure;Samples;Min_cycle;Max_cycle;Signal;HPM_P1;HPM_P2
2022/01/25 00:08:23;;;;;;;68.05;33.17;;;;;;;6.54;60.63;103602.78;4980661;28;20041;-58
2022/01/25 00:10:42;;;;;;;66.60;32.63;;;;;;;6.56;60.34;103606.38;4976911;28;20404;-60
2022/01/25 00:24:15;;;;;;;60.47;31.65;;;;;;;6.59;60.87;103610.91;4972488;28;20115;-58
2022/01/25 00:24:29;;;;;;;65.43;31.88;;;;;;;6.55;60.81;103604.59;4962973;28;20057;-58
2022/01/25 00:29:34;;;;;;;64.47;32.83;;;;;;;6.49;61.02;103607.63;4974115;28;20505;-57
2022/01/25 00:31:59;;;;;;;63.65;33.45;;;;;;;6.53;61.08;103602.69;4973331;28;20045;-58
2022/01/25 00:34:25;;;;;;;64.03;33.08;;;;;;;6.46;61.68;103604.78;4975004;28;20050;-57
2022/01/25 00:36:50;;;;;;;68.70;33.85;;;;;;;6.39;61.37;103612.94;4974998;28;20137;-58
2022/01/25 00:39:16;;;;;;;64.20;33.38;;;;;;;6.41;61.27;103603.56;4996367;28;20233;-57
2022/01/25 00:41:41;;;;;;;65.07;32.70;;;;;;;6.43;61.09;103609.78;4982860;28;20153;-58
2022/01/25 00:44:07;;;;;;;65.38;34.22;;;;;;;6.45;61.39;103605.63;4970771;28;20952;-58
2022/01/25 00:46:33;;;;;;;65.22;33.30;;;;;;;6.41;61.08;103603.56;4981478;28;20187;-58
2022/01/25 00:49:03;;;;;;;67.95;34.30;;;;;;;6.35;60.51;103603.13;4980514;28;20359;-59
2022/01/25 00:54:05;;;;;;;68.38;34.38;;;;;;;6.44;60.54;103598.63;4971045;28;20114;-59
2022/01/25 00:56:35;;;;;;;69.18;34.42;;;;;;;6.44;60.64;103596.03;4981048;28;20111;-59
2022/01/25 00:59:04;;;;;;;68.10;34.17;;;;;;;6.42;60.36;103587.22;4976570;28;20045;-59
2022/01/25 01:01:29;;;;;;;66.72;34.15;;;;;;;6.46;60.75;103590.97;4994612;28;20069;-59
2022/01/25 01:03:55;;;;;;;68.15;34.38;;;;;;;6.48;60.40;103591.97;4967569;28;20502;-59
2022/01/25 01:06:21;;;;;;;71.15;34.42;;;;;;;6.45;60.88;103579.69;4981286;28;20612;-59
2022/01/25 01:08:47;;;;;;;64.80;33.97;;;;;;;6.32;60.19;103583.88;4977994;28;20154;-58
2022/01/25 01:11:19;;;;;;;71.55;34.92;;;;;;;6.40;60.51;103591.38;4979338;28;20057;-58
2022/01/25 01:16:40;;;;;;;66.65;34.25;;;;;;;6.42;60.44;103581.16;4982243;28;20049;-58
2022/01/25 01:30:30;;;;;;;68.28;33.97;;;;;;;6.38;60.45;103585.22;4967833;28;20089;-57
2022/01/25 01:41:45;;;;;;;67.95;33.95;;;;;;;6.58;60.37;103591.88;4978815;28;20045;-58
2022/01/25 01:44:18;;;;;;;69.25;34.10;;;;;;;6.62;59.70;103587.78;4978894;28;20362;-59
2022/01/25 01:46:59;;;;;;;68.28;34.92;;;;;;;6.61;60.16;103586.88;4978545;28;20553;-58
2022/01/25 01:49:25;;;;;;;68.63;34.80;;;;;;;6.51;60.32;103584.44;4976181;28;20103;-57
2022/01/25 01:51:51;;;;;;;68.65;33.38;;;;;;;6.48;60.50;103585.09;4980365;28;20046;-59
2022/01/25 01:54:16;;;;;;;68.53;35.28;;;;;;;6.53;60.27;103583.72;4981468;28;20081;-58
2022/01/25 01:56:43;;;;;;;68.93;35.20;;;;;;;6.40;60.23;103580.16;4976153;28;20067;-58
2022/01/25 01:59:11;;;;;;;71.63;34.83;;;;;;;6.49;60.48;103580.81;4977608;28;20509;-57
2022/01/25 02:01:38;;;;;;;73.13;34.75;;;;;;;6.50;60.48;103587.81;4973361;28;20048;-57
2022/01/25 02:04:06;;;;;;;69.70;34.50;;;;;;;6.60;60.02;103579.00;4975151;28;20483;-58
2022/01/25 02:06:38;;;;;;;68.85;33.33;;;;;;;6.53;60.38;103578.53;4978144;28;20076;-59
2022/01/25 02:09:05;;;;;;;73.50;35.33;;;;;;;6.49;60.50;103576.53;4977151;28;20186;-59
2022/01/25 02:11:30;;;;;;;70.32;34.45;;;;;;;6.58;60.10;103576.31;4973180;28;20038;-58
2022/01/25 02:14:02;;;;;;;75.22;34.50;;;;;;;6.61;60.02;103570.44;4975908;28;20042;-59
2022/01/25 02:24:24;;;;;;;68.32;33.63;;;;;;;6.56;60.30;103564.00;4982054;28;20452;-60
2022/01/25 02:26:54;;;;;;;69.40;33.72;;;;;;;6.58;60.76;103554.69;4977736;28;20041;-59
2022/01/25 02:29:20;;;;;;;70.28;34.13;;;;;;;6.57;61.09;103560.63;4977912;28;20624;-58
2022/01/25 02:31:46;;;;;;;68.93;34.28;;;;;;;6.52;60.43;103557.72;4968023;28;20065;-56
2022/01/25 02:34:11;;;;;;;68.80;34.08;;;;;;;6.51;60.26;103556.81;4975025;28;20052;-58
2022/01/25 02:36:36;;;;;;;70.80;34.53;;;;;;;6.50;60.19;103556.69;4973755;28;20046;-58
2022/01/25 02:39:02;;;;;;;69.57;33.33;;;;;;;6.40;60.90;103556.84;4976530;28;20323;-58
2022/01/25 02:41:28;;;;;;;72.20;35.13;;;;;;;6.48;60.39;103548.81;4979775;28;20064;-58
2022/01/25 02:43:53;;;;;;;70.03;34.60;;;;;;;6.55;60.57;103551.84;4971037;28;20052;-60
2022/01/25 02:48:29;;;;;;;73.00;33.58;;;;;;;6.51;60.26;103550.72;4980065;28;20481;-59
2022/01/25 02:49:08;;;;;;;72.75;34.05;;;;;;;6.38;60.45;103554.13;4978788;28;20064;-58
2022/01/25 02:51:37;;;;;;;70.47;33.85;;;;;;;6.38;60.93;103556.72;4977594;28;20069;-58
2022/01/25 02:54:04;;;;;;;76.22;34.70;;;;;;;6.45;60.34;103564.16;4974135;28;20427;-58
2022/01/25 02:56:30;;;;;;;73.05;34.28;;;;;;;6.39;60.88;103557.63;4978707;28;20049;-59
2022/01/25 02:58:55;;;;;;;70.13;33.72;;;;;;;6.49;60.55;103562.66;4970733;28;20441;-57
2022/01/25 03:01:21;;;;;;;73.32;35.33;;;;;;;6.47;60.84;103559.97;4974407;28;20203;-58
2022/01/25 03:03:48;;;;;;;71.10;33.88;;;;;;;6.58;60.35;103572.81;4977386;28;20494;-57
2022/01/25 03:06:20;;;;;;;73.55;35.22;;;;;;;6.44;60.82;103570.13;4966652;28;21933;-60
2022/01/25 03:08:47;;;;;;;69.57;33.92;;;;;;;6.52;60.65;103568.09;4975038;28;20133;-59
2022/01/25 03:11:13;;;;;;;72.57;33.63;;;;;;;6.57;60.51;103571.91;4972384;28;20049;-59
2022/01/25 03:13:55;;;;;;;75.82;35.15;;;;;;;6.62;60.24;103582.59;4977018;28;20081;-58
2022/01/25 03:17:23;;;;;;;71.15;33.72;;;;;;;6.60;60.87;103571.22;4980774;28;20049;-58
2022/01/25 03:24:53;;;;;;;74.88;34.05;;;;;;;6.38;60.50;103571.34;4974339;28;20045;-59
2022/01/25 03:27:18;;;;;;;69.53;33.40;;;;;;;6.53;60.87;103567.28;4967592;28;20041;-59
2022/01/25 03:29:44;;;;;;;70.15;34.63;;;;;;;6.47;60.95;103559.97;4976304;28;20038;-59
2022/01/25 03:32:09;;;;;;;73.78;34.45;;;;;;;6.53;60.51;103551.72;4964412;28;20485;-59
2022/01/25 03:34:35;;;;;;;71.10;34.35;;;;;;;6.48;60.77;103554.00;4979345;28;20042;-59
2022/01/25 03:37:00;;;;;;;72.05;33.42;;;;;;;6.64;60.24;103555.13;4971341;28;20607;-58
2022/01/25 03:39:25;;;;;;;75.97;35.10;;;;;;;6.59;60.72;103561.66;4979658;28;20054;-59
2022/01/25 03:41:51;;;;;;;75.18;34.15;;;;;;;6.60;60.26;103556.56;4968910;28;20050;-61
2022/01/25 03:44:17;;;;;;;73.82;34.90;;;;;;;6.62;60.40;103552.41;4977153;28;20189;-59
2022/01/25 03:47:08;;;;;;;75.78;34.38;;;;;;;6.62;60.57;103555.00;4978740;28;20272;-58
2022/01/25 03:52:13;;;;;;;70.25;33.50;;;;;;;6.67;59.79;103557.91;4974929;28;20401;-58
2022/01/25 03:54:39;;;;;;;69.68;32.45;;;;;;;6.62;60.87;103552.41;4975510;28;20141;-58
2022/01/25 03:57:05;;;;;;;77.03;35.05;;;;;;;6.61;60.22;103558.38;4971799;28;20076;-59
2022/01/25 03:59:30;;;;;;;73.63;34.33;;;;;;;6.61;60.21;103552.28;4976630;28;20530;-58
2022/01/25 04:01:56;;;;;;;74.45;34.47;;;;;;;6.63;59.34;103548.13;4967940;28;20580;-59
2022/01/25 04:04:24;;;;;;;77.22;34.35;;;;;;;6.66;60.19;103543.13;4968927;28;20156;-58
2022/01/25 04:06:52;;;;;;;71.65;33.40;;;;;;;6.62;59.25;103552.41;4971811;28;20815;-58
2022/01/25 04:09:18;;;;;;;73.07;33.78;;;;;;;6.70;59.39;103548.69;4977703;28;20116;-58
2022/01/25 04:11:43;;;;;;;69.18;33.45;;;;;;;6.69;59.25;103556.34;4973488;28;20046;-58
2022/01/25 04:14:09;;;;;;;71.68;32.83;;;;;;;6.72;58.88;103549.66;4974188;28;20915;-58
2022/01/25 04:16:39;;;;;;;69.18;32.33;;;;;;;6.68;58.61;103547.66;4972005;28;20121;-57
2022/01/25 04:20:08;;;;;;;72.25;33.80;;;;;;;6.71;58.38;103540.09;4981471;28;20042;-58
2022/01/25 04:27:32;;;;;;;69.30;31.38;;;;;;;6.70;58.60;103538.31;4978720;28;20121;-58
2022/01/25 04:29:57;;;;;;;70.63;33.03;;;;;;;6.68;59.86;103528.59;4968635;28;20046;-58
2022/01/25 04:32:32;;;;;;;67.00;31.60;;;;;;;6.72;58.83;103523.75;4977440;28;20113;-60
2022/01/25 04:54:00;;;;;;;66.70;31.88;;;;;;;6.65;58.57;103531.88;4977306;28;20692;-59
2022/01/25 04:56:37;;;;;;;68.35;32.42;;;;;;;6.63;58.58;103517.91;4980271;28;20053;-59
2022/01/25 04:59:14;;;;;;;67.60;31.83;;;;;;;6.64;58.91;103521.41;4982749;28;20397;-59
2022/01/25 05:01:40;;;;;;;61.15;30.58;;;;;;;6.67;57.22;103519.03;4963347;28;20080;-59
2022/01/25 05:04:11;;;;;;;60.22;30.77;;;;;;;6.51;57.77;103520.53;4973243;28;20043;-59
2022/01/25 05:06:37;;;;;;;60.65;30.60;;;;;;;6.60;57.37;103524.56;4973365;28;20045;-59
2022/01/25 05:09:09;;;;;;;60.17;30.70;;;;;;;6.63;57.20;103517.91;4979474;28;20571;-58
2022/01/25 05:11:37;;;;;;;65.07;31.25;;;;;;;6.66;57.46;103520.72;4975277;28;20434;-58
2022/01/25 05:16:37;;;;;;;62.00;30.98;;;;;;;6.66;58.35;103514.63;4972917;28;20041;-59
2022/01/25 05:24:38;;;;;;;63.67;31.25;;;;;;;6.68;58.27;103513.06;4981399;28;20045;-58
2022/01/25 05:27:04;;;;;;;64.72;30.92;;;;;;;6.72;58.05;103505.59;4981703;28;20041;-58
2022/01/25 05:29:30;;;;;;;65.20;32.13;;;;;;;6.75;58.46;103512.69;4975894;28;20041;-60
2022/01/25 05:31:56;;;;;;;71.95;32.88;;;;;;;6.67;59.33;103511.25;4975019;28;20034;-60
2022/01/25 05:34:22;;;;;;;63.85;30.88;;;;;;;6.70;58.24;103509.78;4978797;28;20116;-60
2022/01/25 05:36:47;;;;;;;62.40;30.67;;;;;;;6.70;57.91;103519.25;4977942;28;20113;-60
2022/01/25 05:39:17;;;;;;;60.03;30.48;;;;;;;6.62;57.80;103518.72;4981083;28;20042;-59
2022/01/25 05:41:45;;;;;;;64.10;32.15;;;;;;;6.63;58.30;103517.91;4979923;28;20038;-58
2022/01/25 05:47:08;;;;;;;64.40;30.80;;;;;;;6.63;58.05;103519.59;4978750;28;21140;-58
2022/01/25 05:49:36;;;;;;;65.60;31.95;;;;;;;6.58;58.94;103524.47;4976969;28;20455;-57
2022/01/25 05:52:07;;;;;;;63.33;31.13;;;;;;;6.58;58.59;103527.06;4970622;28;20484;-58
2022/01/25 05:54:33;;;;;;;65.18;31.25;;;;;;;6.58;58.33;103527.06;4971362;28;20504;-58
2022/01/25 05:56:58;;;;;;;60.55;30.30;;;;;;;6.60;58.03;103524.56;4972518;28;20056;-58
2022/01/25 05:59:24;;;;;;;63.47;31.10;;;;;;;6.64;58.16;103531.78;4980895;28;21349;-57
2022/01/25 06:01:49;;;;;;;63.35;30.80;;;;;;;6.65;58.20;103523.22;4970805;28;20042;-59
2022/01/25 06:04:15;;;;;;;61.72;30.63;;;;;;;6.63;57.80;103523.09;4973881;28;20461;-58
2022/01/25 06:06:41;;;;;;;61.75;30.35;;;;;;;6.65;57.61;103528.41;4976765;28;20112;-58
2022/01/25 06:09:06;;;;;;;65.32;32.17;;;;;;;6.67;59.09;103539.75;4969977;28;20631;-60
2022/01/25 06:11:33;;;;;;;61.60;30.50;;;;;;;6.70;59.01;103534.81;4976077;28;20444;-58
2022/01/25 06:14:02;;;;;;;62.30;30.98;;;;;;;6.71;58.46;103531.44;4966842;28;20061;-58
2022/01/25 06:16:30;;;;;;;67.38;31.70;;;;;;;6.68;58.95;103532.09;4980610;28;20054;-60
2022/01/25 06:18:57;;;;;;;61.13;31.38;;;;;;;6.62;58.79;103529.06;4976164;28;20516;-57
2022/01/25 06:21:22;;;;;;;65.47;31.80;;;;;;;6.60;57.93;103520.28;4987241;28;20103;-58
2022/01/25 06:23:48;;;;;;;64.45;32.53;;;;;;;6.59;58.02;103530.56;4973825;28;20038;-58
2022/01/25 06:26:13;;;;;;;62.42;31.27;;;;;;;6.50;59.85;103529.09;4973266;28;20361;-59
2022/01/25 06:28:39;;;;;;;64.60;32.30;;;;;;;6.57;58.99;103534.72;4963521;28;20072;-58
2022/01/25 06:31:04;;;;;;;66.20;31.67;;;;;;;6.58;59.84;103536.53;4977885;28;20480;-59
2022/01/25 06:33:30;;;;;;;69.10;31.67;;;;;;;6.57;59.23;103537.31;4979293;28;20046;-59
2022/01/25 06:35:56;;;;;;;59.03;29.00;;;;;;;6.53;58.20;103540.50;4974504;28;20747;-58
2022/01/25 06:38:21;;;;;;;62.15;31.17;;;;;;;6.62;57.98;103538.53;4968681;28;20034;-59
2022/01/25 06:40:47;;;;;;;64.20;31.63;;;;;;;6.58;58.23;103539.13;4979523;28;20512;-59
2022/01/25 06:43:12;;;;;;;65.57;32.03;;;;;;;6.58;58.39;103540.03;4977815;28;20096;-59
2022/01/25 06:45:40;;;;;;;62.13;30.55;;;;;;;6.59;58.80;103541.78;4976936;28;20413;-59
2022/01/25 06:48:06;;;;;;;68.13;32.33;;;;;;;6.63;58.54;103545.53;4974459;28;20148;-59
2022/01/25 06:50:32;;;;;;;59.47;30.35;;;;;;;6.61;58.25;103548.00;4978658;28;20057;-59
2022/01/25 06:52:58;;;;;;;64.47;30.63;;;;;;;6.62;57.74;103548.91;4985615;28;20402;-59
2022/01/25 06:55:23;;;;;;;58.50;29.38;;;;;;;6.69;57.73;103543.38;4977204;28;20042;-59
2022/01/25 06:57:48;;;;;;;66.28;31.90;;;;;;;6.67;58.16;103548.44;4971018;28;20061;-59
2022/01/25 07:00:18;;;;;;;63.88;30.42;;;;;;;6.62;58.08;103546.31;4964863;28;20630;-59
2022/01/25 07:02:43;;;;;;;60.25;30.65;;;;;;;6.63;57.79;103545.53;4975577;28;20057;-59
2022/01/25 07:05:09;;;;;;;67.57;31.35;;;;;;;6.61;58.19;103548.00;4973911;28;20402;-58
2022/01/25 07:07:35;;;;;;;65.63;31.30;;;;;;;6.57;58.07;103551.19;4992267;28;20132;-58
2022/01/25 07:10:00;;;;;;;64.93;31.45;;;;;;;6.61;57.89;103544.50;4957088;28;20042;-60
2022/01/25 07:12:26;;;;;;;68.15;32.10;;;;;;;6.66;59.30;103541.44;4978816;28;20053;-58
2022/01/25 07:14:51;;;;;;;67.90;31.63;;;;;;;6.63;58.93;103551.63;4975469;28;20657;-58
2022/01/25 07:17:16;;;;;;;69.50;32.85;;;;;;;6.68;58.53;103551.94;4973241;28;20046;-60
2022/01/25 07:19:42;;;;;;;70.05;33.20;;;;;;;6.73;57.87;103554.06;4975050;28;20034;-59
2022/01/25 07:22:07;;;;;;;73.90;34.50;;;;;;;6.72;58.21;103553.94;4973003;28;20139;-57
2022/01/25 07:24:33;;;;;;;72.53;32.85;;;;;;;6.71;57.95;103554.75;4973562;28;20357;-58
2022/01/25 07:26:58;;;;;;;66.18;32.13;;;;;;;6.69;57.59;103558.94;4974437;28;20501;-60
2022/01/25 07:29:24;;;;;;;66.18;31.08;;;;;;;6.64;57.58;103563.78;4972039;28;20073;-59
2022/01/25 07:31:49;;;;;;;67.88;31.52;;;;;;;6.68;57.92;103562.31;4971736;28;20122;-58
2022/01/25 07:34:15;;;;;;;65.55;32.00;;;;;;;6.53;57.75;103556.91;4972750;28;20133;-59
2022/01/25 07:36:42;;;;;;;71.65;32.78;;;;;;;6.64;58.01;103558.59;4970283;28;20139;-59
2022/01/25 07:39:08;;;;;;;75.78;33.65;;;;;;;6.62;59.00;103567.06;4975911;28;20052;-59
2022/01/25 07:41:33;;;;;;;72.13;32.53;;;;;;;6.63;58.67;103559.41;4971159;28;20050;-58
2022/01/25 07:43:59;;;;;;;71.70;33.47;;;;;;;6.62;58.80;103562.78;4970214;28;20482;-59
2022/01/25 07:46:25;;;;;;;72.97;32.90;;;;;;;6.60;59.04;103563.44;4978642;28;20490;-58
2022/01/25 07:48:50;;;;;;;70.03;33.15;;;;;;;6.61;59.59;103560.06;4993619;28;20264;-58
2022/01/25 07:51:17;;;;;;;72.43;33.05;;;;;;;6.60;58.58;103553.06;4980024;28;20618;-58
2022/01/25 07:53:44;;;;;;;73.90;33.78;;;;;;;6.61;59.03;103549.69;4982209;28;20095;-59
2022/01/25 07:56:09;;;;;;;71.60;33.90;;;;;;;6.67;59.15;103556.22;4987769;28;20120;-60
2022/01/25 07:58:35;;;;;;;71.53;32.65;;;;;;;6.70;58.67;103550.38;4983010;28;20527;-58
2022/01/25 08:01:00;;;;;;;72.65;33.80;;;;;;;6.69;59.06;103544.28;4977585;28;20042;-59
2022/01/25 08:03:26;;;;;;;69.25;33.35;;;;;;;6.58;58.26;103563.34;4965748;28;20106;-59
2022/01/25 08:05:51;;;;;;;67.28;31.98;;;;;;;6.71;58.04;103558.22;4981939;28;20689;-61
2022/01/25 08:08:17;;;;;;;73.28;33.53;;;;;;;6.76;57.43;103551.72;4981275;28;20129;-58
2022/01/25 08:10:43;;;;;;;68.38;32.33;;;;;;;6.80;57.68;103545.94;4983821;28;20500;-58
2022/01/25 08:13:08;;;;;;;73.63;34.10;;;;;;;6.82;58.40;103556.44;4983393;28;20058;-59
2022/01/25 08:15:33;;;;;;;68.03;32.65;;;;;;;6.83;57.95;103551.31;4979675;28;20142;-59
2022/01/25 08:17:59;;;;;;;67.60;32.45;;;;;;;6.80;58.82;103555.41;4963100;28;20140;-59
2022/01/25 08:20:24;;;;;;;75.20;33.28;;;;;;;6.78;58.91;103550.09;4980040;28;20052;-59
2022/01/25 08:22:50;;;;;;;70.63;32.97;;;;;;;6.81;58.59;103554.63;4965486;28;20048;-58
2022/01/25 08:25:17;;;;;;;72.10;32.70;;;;;;;6.79;58.84;103544.13;4979727;28;20034;-60
2022/01/25 08:27:42;;;;;;;74.20;33.13;;;;;;;6.81;59.23;103537.38;4963338;28;20465;-58
2022/01/25 08:30:08;;;;;;;72.47;33.47;;;;;;;6.83;59.46;103543.53;4973523;28;20293;-58
2022/01/25 08:32:33;;;;;;;74.90;34.53;;;;;;;6.75;59.17;103543.81;4981256;28;20995;-59
2022/01/25 08:34:59;;;;;;;74.95;33.78;;;;;;;6.71;59.53;103534.03;4991532;28;20506;-58
2022/01/25 08:37:25;;;;;;;77.07;33.80;;;;;;;6.74;59.43;103537.72;4982108;28;20041;-58
2022/01/25 08:39:51;;;;;;;75.97;34.45;;;;;;;6.80;58.79;103537.25;4974656;28;20057;-61
2022/01/25 08:42:17;;;;;;;71.68;32.55;;;;;;;6.84;58.35;103541.84;4973343;28;20624;-60
2022/01/25 08:44:42;;;;;;;71.80;32.35;;;;;;;6.80;59.44;103535.56;4976297;28;20037;-58
2022/01/25 08:47:08;;;;;;;73.78;33.22;;;;;;;6.90;59.21;103540.59;4979578;28;20470;-59
2022/01/25 08:49:33;;;;;;;75.53;34.78;;;;;;;6.88;58.76;103544.81;4977657;28;20136;-59
2022/01/25 08:51:59;;;;;;;78.78;34.78;;;;;;;6.97;58.47;103538.44;4975649;28;20516;-60
2022/01/25 08:54:25;;;;;;;82.97;35.15;;;;;;;6.96;59.75;103547.91;4977098;28;20277;-59
2022/01/25 08:56:51;;;;;;;78.90;33.97;;;;;;;6.97;58.86;103544.53;4978896;28;20053;-59
2022/01/25 08:59:17;;;;;;;71.85;33.22;;;;;;;7.03;58.67;103539.78;4971048;28;20683;-59
2022/01/25 09:01:42;;;;;;;77.53;34.10;;;;;;;7.02;58.61;103542.25;4980134;28;20084;-59
2022/01/25 09:04:07;;;;;;;75.82;34.38;;;;;;;7.00;59.21;103549.03;4975188;28;20137;-59
2022/01/25 09:06:34;;;;;;;73.05;34.47;;;;;;;7.07;57.49;103548.69;4979528;28;20046;-59
2022/01/25 09:09:02;;;;;;;74.90;33.70;;;;;;;7.12;57.32;103558.59;4974355;28;20062;-59
2022/01/25 09:11:28;;;;;;;79.70;34.95;;;;;;;7.13;58.37;103554.31;4978358;28;20384;-59
2022/01/25 09:13:53;;;;;;;75.30;33.83;;;;;;;7.14;58.55;103554.38;4970366;28;20697;-60
2022/01/25 09:16:19;;;;;;;75.90;34.47;;;;;;;7.14;59.49;103554.38;4981398;28;20054;-59
2022/01/25 09:18:44;;;;;;;71.82;33.15;;;;;;;7.18;57.55;103550.34;4976157;28;20148;-59
2022/01/25 09:21:10;;;;;;;73.07;32.65;;;;;;;7.21;57.39;103547.94;4981620;28;20177;-59
2022/01/25 09:23:36;;;;;;;76.00;34.38;;;;;;;7.20;58.42;103557.41;4970278;28;20034;-59
2022/01/25 09:26:02;;;;;;;72.43;33.40;;;;;;;7.25;57.88;103555.16;4973361;28;20042;-59
2022/01/25 09:28:27;;;;;;;71.75;33.92;;;;;;;7.30;57.78;103559.88;4979327;28;20384;-59
2022/01/25 09:30:53;;;;;;;73.50;34.03;;;;;;;7.28;57.84;103560.53;4978589;28;20454;-58
2022/01/25 09:33:18;;;;;;;73.85;33.30;;;;;;;7.31;57.75;103555.59;4980975;28;20050;-59
2022/01/25 09:35:44;;;;;;;73.85;34.17;;;;;;;7.34;58.02;103558.38;4979680;28;20575;-59
2022/01/25 09:38:10;;;;;;;79.25;35.58;;;;;;;7.39;57.52;103569.97;4964471;28;21330;-59
2022/01/25 09:40:36;;;;;;;73.50;34.35;;;;;;;7.42;56.82;103571.88;4981191;28;20460;-59
2022/01/25 09:43:02;;;;;;;76.57;34.40;;;;;;;7.44;57.03;103571.19;4974140;28;20034;-60
2022/01/25 09:45:28;;;;;;;71.95;32.80;;;;;;;7.49;56.67;103571.53;4976068;28;20042;-59
2022/01/25 09:47:53;;;;;;;72.35;33.72;;;;;;;7.48;56.77;103570.63;4968939;28;20046;-62
2022/01/25 09:50:20;;;;;;;73.90;34.03;;;;;;;7.46;56.09;103573.88;4979374;28;20057;-59
2022/01/25 09:52:46;;;;;;;74.88;34.05;;;;;;;7.40;56.63;103576.06;4972511;28;20052;-58
2022/01/25 09:55:14;;;;;;;75.95;34.88;;;;;;;7.43;56.14;103577.19;4972980;28;20053;-59
2022/01/25 09:57:51;;;;;;;72.25;33.00;;;;;;;7.40;57.29;103576.97;4972111;28;20038;-58
2022/01/25 10:00:20;;;;;;;76.43;34.35;;;;;;;7.35;57.36;103583.53;4975125;28;20058;-58
2022/01/25 10:02:57;;;;;;;77.68;34.45;;;;;;;7.37;57.74;103588.84;4976912;28;20054;-58
2022/01/25 10:05:30;;;;;;;75.10;34.30;;;;;;;7.18;57.43;103592.75;4964909;28;20517;-58
2022/01/25 10:08:00;;;;;;;76.70;35.05;;;;;;;7.30;57.82;103590.09;4966878;28;20034;-59
2022/01/25 10:10:27;;;;;;;78.18;34.97;;;;;;;7.27;57.58;103592.47;4975467;28;20115;-59
2022/01/25 10:12:55;;;;;;;73.68;34.17;;;;;;;7.38;57.07;103595.84;4973780;28;20400;-58
2022/01/25 10:15:20;;;;;;;72.78;33.83;;;;;;;7.30;56.08;103598.78;4975126;28;20069;-58
2022/01/25 10:17:46;;;;;;;74.22;34.50;;;;;;;7.27;57.15;103600.25;4969838;28;20056;-59
2022/01/25 10:20:29;;;;;;;73.70;34.28;;;;;;;7.35;56.39;103601.69;4968491;28;20858;-58
2022/01/25 10:22:59;;;;;;;73.20;33.58;;;;;;;7.32;56.78;103602.38;4976154;28;20065;-59
2022/01/25 10:25:45;;;;;;;75.13;32.58;;;;;;;7.29;56.79;103601.28;4978012;28;20428;-59
2022/01/25 10:28:12;;;;;;;74.32;33.70;;;;;;;7.39;57.10;103603.69;4966632;28;20049;-59
2022/01/25 10:30:47;;;;;;;73.97;34.53;;;;;;;7.35;56.72;103606.88;4975412;28;20053;-59
2022/01/25 10:33:35;;;;;;;77.47;34.40;;;;;;;7.26;57.34;103612.31;4978965;28;20681;-58
2022/01/25 10:36:10;;;;;;;73.15;32.38;;;;;;;7.28;57.12;103610.75;4969481;28;20051;-58
2022/01/25 10:38:36;;;;;;;73.53;32.90;;;;;;;7.43;56.66;103612.63;4974309;28;20536;-58
2022/01/25 10:41:05;;;;;;;71.47;32.05;;;;;;;7.41;55.46;103611.59;4974550;28;20560;-59
2022/01/25 10:43:31;;;;;;;70.55;32.92;;;;;;;7.41;55.89;103614.19;4976782;28;20115;-59
2022/01/25 10:46:27;;;;;;;72.35;33.65;;;;;;;7.44;55.98;103611.84;4965302;28;20045;-57
2022/01/25 10:49:08;;;;;;;71.65;32.25;;;;;;;7.53;56.07;103607.25;4971319;28;20834;-59
2022/01/25 10:51:34;;;;;;;72.28;32.35;;;;;;;7.54;55.60;103612.56;4974568;28;20115;-59
2022/01/25 10:54:15;;;;;;;74.63;33.40;;;;;;;7.56;55.68;103608.34;4969625;28;20038;-59
2022/01/25 10:56:43;;;;;;;71.35;33.33;;;;;;;7.64;56.68;103607.19;4977429;28;20054;-58
2022/01/25 10:59:16;;;;;;;70.47;32.00;;;;;;;7.70;55.68;103615.41;4968527;28;20042;-59
2022/01/25 11:02:06;;;;;;;73.97;32.90;;;;;;;7.65;55.86;103611.59;4968101;28;20033;-59
2022/01/25 11:04:41;;;;;;;71.55;33.58;;;;;;;7.22;56.19;103610.31;4973233;28;20053;-59
2022/01/25 11:07:10;;;;;;;78.38;34.60;;;;;;;7.37;56.25;103617.38;4975026;28;20045;-59
2022/01/25 11:09:45;;;;;;;75.95;34.15;;;;;;;7.32;56.26;103607.56;4978260;28;20393;-59
2022/01/25 11:12:15;;;;;;;72.55;33.45;;;;;;;7.48;56.69;103603.44;4968718;28;20465;-58
2022/01/25 11:14:50;;;;;;;75.75;34.30;;;;;;;7.47;55.81;103609.44;4976550;28;20426;-58
2022/01/25 11:17:20;;;;;;;79.18;33.97;;;;;;;7.36;56.40;103607.78;4975516;28;20038;-60
2022/01/25 11:19:47;;;;;;;79.03;34.35;;;;;;;7.24;56.32;103606.16;4971960;28;20105;-58
2022/01/25 11:22:19;;;;;;;79.03;34.10;;;;;;;7.21;56.92;103605.00;4977407;28;20544;-57
2022/01/25 11:24:46;;;;;;;73.38;32.88;;;;;;;7.28;56.42;103613.34;4982192;28;20474;-57
2022/01/25 11:27:12;;;;;;;77.75;32.75;;;;;;;7.34;56.39;103602.50;4975211;28;20038;-58
2022/01/25 11:29:40;;;;;;;74.68;33.90;;;;;;;7.44;56.36;103604.91;4978417;28;20092;-59
2022/01/25 11:32:10;;;;;;;73.75;32.97;;;;;;;7.47;56.17;103599.06;4971274;28;20164;-58
2022/01/25 11:34:45;;;;;;;76.90;34.67;;;;;;;7.13;56.58;103604.50;4981096;28;20058;-59
2022/01/25 11:37:11;;;;;;;79.90;34.70;;;;;;;7.01;57.10;103605.31;4976554;28;20030;-59
2022/01/25 11:39:40;;;;;;;80.65;34.30;;;;;;;7.02;57.22;103604.50;4976995;28;20046;-59
2022/01/25 11:42:11;;;;;;;75.63;32.20;;;;;;;7.29;56.99;103603.88;4972370;28;20693;-60
2022/01/25 11:44:51;;;;;;;77.55;34.53;;;;;;;7.41;56.51;103588.25;4980308;28;20034;-59
2022/01/25 11:47:20;;;;;;;77.90;33.00;;;;;;;7.44;56.54;103591.06;4977741;28;20133;-59
2022/01/25 11:49:59;;;;;;;78.22;33.50;;;;;;;7.38;56.52;103575.94;4977396;28;20484;-58
2022/01/25 11:52:26;;;;;;;75.95;33.60;;;;;;;7.45;55.84;103582.47;4982407;28;20061;-59
2022/01/25 11:55:27;;;;;;;75.50;33.92;;;;;;;7.56;56.21;103579.81;4973588;28;20364;-59
2022/01/25 11:58:06;;;;;;;73.93;31.83;;;;;;;7.61;56.13;103583.66;4976496;28;20042;-61
2022/01/25 12:00:41;;;;;;;74.57;33.28;;;;;;;7.54;55.47;103583.13;4977233;28;20073;-59
2022/01/25 12:03:34;;;;;;;78.85;32.55;;;;;;;7.45;56.73;103569.47;4969668;28;20057;-59
2022/01/25 12:06:02;;;;;;;74.25;32.25;;;;;;;7.54;55.57;103570.13;4966281;28;20050;-58
2022/01/25 12:09:05;;;;;;;76.25;32.47;;;;;;;7.58;55.63;103567.84;4961693;28;20626;-58
2022/01/25 12:12:07;;;;;;;79.60;32.55;;;;;;;7.70;56.03;103566.06;4979012;28;20052;-60
2022/01/25 12:14:39;;;;;;;76.88;33.13;;;;;;;7.67;56.66;103564.97;4975702;28;20133;-57
2022/01/25 12:17:04;;;;;;;80.45;32.72;;;;;;;7.59;57.33;103556.66;4979958;28;20042;-60
2022/01/25 12:19:44;;;;;;;81.22;33.63;;;;;;;7.55;56.46;103551.16;4975036;28;20056;-60
2022/01/25 12:25:19;;;;;;;82.40;34.10;;;;;;;7.52;55.88;103558.72;4976395;28;20034;-60
2022/01/25 12:27:51;;;;;;;77.88;33.45;;;;;;;7.61;55.69;103549.91;4980999;28;20042;-58
2022/01/25 12:30:24;;;;;;;76.75;32.78;;;;;;;7.67;56.33;103557.19;4975716;28;20122;-59
2022/01/25 12:32:58;;;;;;;77.05;33.35;;;;;;;7.73;55.71;103548.13;4972583;28;20497;-58
2022/01/25 12:35:40;;;;;;;75.55;34.63;;;;;;;7.53;55.54;103547.56;4978135;28;20046;-59
2022/01/25 12:38:20;;;;;;;82.40;35.08;;;;;;;7.30;56.03;103540.81;4986443;28;20695;-58
2022/01/25 12:41:21;;;;;;;75.30;33.00;;;;;;;7.46;55.65;103533.25;4979029;28;20077;-58
2022/01/25 12:43:51;;;;;;;74.30;33.28;;;;;;;7.07;56.69;103530.53;4976043;28;20580;-60
2022/01/25 12:46:24;;;;;;;83.25;33.70;;;;;;;7.32;56.19;103531.41;4970765;28;20058;-58
2022/01/25 12:48:54;;;;;;;78.53;33.80;;;;;;;7.45;55.79;103520.16;4979729;28;20073;-59
2022/01/25 12:51:25;;;;;;;82.10;34.53;;;;;;;7.48;55.64;103516.09;4978651;28;20042;-58
2022/01/25 12:53:53;;;;;;;78.13;33.95;;;;;;;7.25;56.07;103521.44;4972263;28;20107;-58
2022/01/25 12:56:24;;;;;;;80.95;33.95;;;;;;;7.43;57.00;103514.91;4970918;28;20050;-58
2022/01/25 12:58:58;;;;;;;79.60;33.50;;;;;;;7.51;55.75;103516.28;4978346;28;20495;-59
2022/01/25 13:01:26;;;;;;;81.82;35.15;;;;;;;7.58;56.01;103512.41;4969531;28;20869;-59
2022/01/25 13:03:56;;;;;;;83.97;33.90;;;;;;;7.61;56.72;103512.66;4968460;28;20444;-61